Ana Sayfa
METAR-TAF:

METAR-TAF

Havaalanları :

North Kingstown, Rhode Island, Amerika Birleşik Devletleri

Enlem: 41-36N, Boylam: 071-25W, yükseklik: 6 m

Güncel hava durumu gözlemi

Rapor saat 21:50 UTC de 4 saat ve 26 dakika önce yapıldı.
Rüzgar batıdan 10 kt
Sıcaklık 7°C
Nem 87%
Basınç 992 hPa
Görüş mesafesi: 16.1 km
1300 ft yükseklikte parçalı bulutlu
4500 ft yükseklikte parçalı çok bulutlu

METAR: KOQU 162150Z 26010KT 10SM SCT013 BKN045 07/05 A2930 RMK LAST

Saat: 21:16 (02:16 UTC)


TAF: eksik

4.000'den fazla havaalanı için hava durumu gözlemleri ve tahminleri (METAR ve TAF raporları).

Kullanılabilir istasyonlar harita üzerinde sarı ve kırmızı noktalarla gösterilir.

İstasyonun adını görmek için fareyi noktanın üzerinde gezdirin.

Sonrasında hava gözlem ve tahminlerini görmek için tıklayın.

Haritayı değiştirmek için: yaklaştırmak için siyah artı işaretli yeşil düğmeye ve uzaklaştırmak için de eksi işaretli düğmeye hızla tıklayın; bitişik haritalar için yeşil okları kullanın.


METAR-TAF: